Akiachak, Alaska
Current Conditions -  °F | °C
As of 6:56 AM on Thursday 30 Oct 2014 (Local Time) from PFKW Reporting Station
Clear Clear  
Wind Chill: 18°   Ceiling: Unl
Heat Index: 18°   Visibility: 10mi
Dew Point: 16°   Wind: 3mph
Humidity: 92%   Direction: 330°NNW
Pressure: 29.91"   Gusts: NA
Location:  60.91°N, 161.44°W
Report Text: PFKW 301456Z AUTO 33003KT 10SM CLR M08/M09 A2991 RMK AO2 SLP128 T10781089 53003 FZRANO
Loading
Personal Weather Stations






























Interactive Weather Map
Tropical Storm Tracking
New forecast layout! Learn more

10-Day Weather Forecast

Advertisements
Track Severe Weather on mobile